sensor_id;sensor_type;location;lat;lon;timestamp;P1;durP1;ratioP1;P2;durP2;ratioP2
41719;SDS011;27405;53.316;-6.294;2023-04-25T00:00:34;20.17;;;7.85;;
41719;SDS011;27405;53.316;-6.294;2023-04-25T00:02:59;16.10;;;6.30;;
41719;SDS011;27405;53.316;-6.294;2023-04-25T00:05:25;14.13;;;6.25;;
41719;SDS011;27405;53.316;-6.294;2023-04-25T00:07:51;16.02;;;6.70;;
41719;SDS011;27405;53.316;-6.294;2023-04-25T00:10:18;15.60;;;6.28;;
41719;SDS011;27405;53.316;-6.294;2023-04-25T00:12:44;8.52;;;3.40;;
41719;SDS011;27405;53.316;-6.294;2023-04-25T00:15:10;10.50;;;3.33;;
41719;SDS011;27405;53.316;-6.294;2023-04-25T00:17:36;10.25;;;2.42;;
41719;SDS011;27405;53.316;-6.294;2023-04-25T00:20:03;6.03;;;2.33;;
41719;SDS011;27405;53.316;-6.294;2023-04-25T00:22:30;9.43;;;2.70;;
41719;SDS011;27405;53.316;-6.294;2023-04-25T00:24:56;4.93;;;2.35;;
41719;SDS011;27405;53.316;-6.294;2023-04-25T00:27:25;6.65;;;2.25;;
41719;SDS011;27405;53.316;-6.294;2023-04-25T00:29:51;6.03;;;2.60;;
41719;SDS011;27405;53.316;-6.294;2023-04-25T00:32:17;8.85;;;2.40;;
41719;SDS011;27405;53.316;-6.294;2023-04-25T00:34:42;6.82;;;2.50;;
41719;SDS011;27405;53.316;-6.294;2023-04-25T00:37:08;7.25;;;2.15;;
41719;SDS011;27405;53.316;-6.294;2023-04-25T00:39:34;5.55;;;2.33;;
41719;SDS011;27405;53.316;-6.294;2023-04-25T00:42:00;5.60;;;2.30;;
41719;SDS011;27405;53.316;-6.294;2023-04-25T00:44:27;5.13;;;2.17;;
41719;SDS011;27405;53.316;-6.294;2023-04-25T00:46:54;5.55;;;2.30;;
41719;SDS011;27405;53.316;-6.294;2023-04-25T00:49:20;5.38;;;2.08;;
41719;SDS011;27405;53.316;-6.294;2023-04-25T00:51:46;7.22;;;2.67;;
41719;SDS011;27405;53.316;-6.294;2023-04-25T00:54:12;7.03;;;2.50;;
41719;SDS011;27405;53.316;-6.294;2023-04-25T00:56:38;5.90;;;2.67;;
41719;SDS011;27405;53.316;-6.294;2023-04-25T00:59:04;7.13;;;2.85;;
41719;SDS011;27405;53.316;-6.294;2023-04-25T01:01:31;8.80;;;2.50;;
41719;SDS011;27405;53.316;-6.294;2023-04-25T01:03:58;8.65;;;3.22;;
41719;SDS011;27405;53.316;-6.294;2023-04-25T01:06:24;5.00;;;2.92;;
41719;SDS011;27405;53.316;-6.294;2023-04-25T01:08:51;6.65;;;3.30;;
41719;SDS011;27405;53.316;-6.294;2023-04-25T01:11:17;7.88;;;3.97;;
41719;SDS011;27405;53.316;-6.294;2023-04-25T01:13:42;9.13;;;3.83;;
41719;SDS011;27405;53.316;-6.294;2023-04-25T01:16:08;9.00;;;3.85;;
41719;SDS011;27405;53.316;-6.294;2023-04-25T01:18:34;7.28;;;3.63;;
41719;SDS011;27405;53.316;-6.294;2023-04-25T01:21:11;7.93;;;4.00;;
41719;SDS011;27405;53.316;-6.294;2023-04-25T01:23:38;8.80;;;3.80;;
41719;SDS011;27405;53.316;-6.294;2023-04-25T01:26:05;10.40;;;4.25;;
41719;SDS011;27405;53.316;-6.294;2023-04-25T01:28:33;11.60;;;4.53;;
41719;SDS011;27405;53.316;-6.294;2023-04-25T01:30:59;10.70;;;4.05;;
41719;SDS011;27405;53.316;-6.294;2023-04-25T01:33:26;9.32;;;4.20;;
41719;SDS011;27405;53.316;-6.294;2023-04-25T01:35:51;6.28;;;3.90;;
41719;SDS011;27405;53.316;-6.294;2023-04-25T01:38:17;10.25;;;4.20;;
41719;SDS011;27405;53.316;-6.294;2023-04-25T01:40:43;10.60;;;3.95;;
41719;SDS011;27405;53.316;-6.294;2023-04-25T01:43:10;10.32;;;4.63;;
41719;SDS011;27405;53.316;-6.294;2023-04-25T01:45:43;12.07;;;4.40;;
41719;SDS011;27405;53.316;-6.294;2023-04-25T01:48:09;11.63;;;5.10;;
41719;SDS011;27405;53.316;-6.294;2023-04-25T01:50:37;13.25;;;4.90;;
41719;SDS011;27405;53.316;-6.294;2023-04-25T01:53:04;14.38;;;5.47;;
41719;SDS011;27405;53.316;-6.294;2023-04-25T01:55:30;11.20;;;5.32;;
41719;SDS011;27405;53.316;-6.294;2023-04-25T01:57:55;11.20;;;5.00;;
41719;SDS011;27405;53.316;-6.294;2023-04-25T02:00:21;10.63;;;5.25;;
41719;SDS011;27405;53.316;-6.294;2023-04-25T02:02:47;11.18;;;5.18;;
41719;SDS011;27405;53.316;-6.294;2023-04-25T02:05:15;12.65;;;5.10;;
41719;SDS011;27405;53.316;-6.294;2023-04-25T02:07:42;11.02;;;5.05;;
41719;SDS011;27405;53.316;-6.294;2023-04-25T02:10:08;9.95;;;5.38;;
41719;SDS011;27405;53.316;-6.294;2023-04-25T02:12:35;11.93;;;5.82;;
41719;SDS011;27405;53.316;-6.294;2023-04-25T02:15:00;7.93;;;4.88;;
41719;SDS011;27405;53.316;-6.294;2023-04-25T02:17:26;11.13;;;5.82;;
41719;SDS011;27405;53.316;-6.294;2023-04-25T02:19:52;12.23;;;5.95;;
41719;SDS011;27405;53.316;-6.294;2023-04-25T02:22:18;10.05;;;5.45;;
41719;SDS011;27405;53.316;-6.294;2023-04-25T02:24:43;14.32;;;6.00;;
41719;SDS011;27405;53.316;-6.294;2023-04-25T02:27:09;9.98;;;5.40;;
41719;SDS011;27405;53.316;-6.294;2023-04-25T02:29:35;13.38;;;5.90;;
41719;SDS011;27405;53.316;-6.294;2023-04-25T02:32:01;10.25;;;5.10;;
41719;SDS011;27405;53.316;-6.294;2023-04-25T02:34:26;11.10;;;5.40;;
41719;SDS011;27405;53.316;-6.294;2023-04-25T02:36:52;9.88;;;5.15;;
41719;SDS011;27405;53.316;-6.294;2023-04-25T02:39:17;9.60;;;4.43;;
41719;SDS011;27405;53.316;-6.294;2023-04-25T02:41:43;11.73;;;5.10;;
41719;SDS011;27405;53.316;-6.294;2023-04-25T02:44:09;11.38;;;5.13;;
41719;SDS011;27405;53.316;-6.294;2023-04-25T02:46:35;12.88;;;5.07;;
41719;SDS011;27405;53.316;-6.294;2023-04-25T02:49:01;12.57;;;4.88;;
41719;SDS011;27405;53.316;-6.294;2023-04-25T02:51:26;13.02;;;5.93;;
41719;SDS011;27405;53.316;-6.294;2023-04-25T02:53:52;12.50;;;5.45;;
41719;SDS011;27405;53.316;-6.294;2023-04-25T02:56:17;13.05;;;5.80;;
41719;SDS011;27405;53.316;-6.294;2023-04-25T02:58:43;16.98;;;6.72;;
41719;SDS011;27405;53.316;-6.294;2023-04-25T03:01:10;14.13;;;6.75;;
41719;SDS011;27405;53.316;-6.294;2023-04-25T03:03:35;12.60;;;6.15;;
41719;SDS011;27405;53.316;-6.294;2023-04-25T03:06:01;12.88;;;6.50;;
41719;SDS011;27405;53.316;-6.294;2023-04-25T03:08:27;15.60;;;6.60;;
41719;SDS011;27405;53.316;-6.294;2023-04-25T03:10:59;14.38;;;5.85;;
41719;SDS011;27405;53.316;-6.294;2023-04-25T03:13:25;12.77;;;5.82;;
41719;SDS011;27405;53.316;-6.294;2023-04-25T03:15:52;13.55;;;6.07;;
41719;SDS011;27405;53.316;-6.294;2023-04-25T03:18:19;12.35;;;6.32;;
41719;SDS011;27405;53.316;-6.294;2023-04-25T03:20:44;12.52;;;5.78;;
41719;SDS011;27405;53.316;-6.294;2023-04-25T03:23:11;15.20;;;6.40;;
41719;SDS011;27405;53.316;-6.294;2023-04-25T03:25:37;9.65;;;5.30;;
41719;SDS011;27405;53.316;-6.294;2023-04-25T03:28:02;14.95;;;5.85;;
41719;SDS011;27405;53.316;-6.294;2023-04-25T03:30:28;15.05;;;6.45;;
41719;SDS011;27405;53.316;-6.294;2023-04-25T03:32:54;13.65;;;6.18;;
41719;SDS011;27405;53.316;-6.294;2023-04-25T03:35:20;13.23;;;6.22;;
41719;SDS011;27405;53.316;-6.294;2023-04-25T03:37:45;16.17;;;5.90;;
41719;SDS011;27405;53.316;-6.294;2023-04-25T03:40:11;16.55;;;6.35;;
41719;SDS011;27405;53.316;-6.294;2023-04-25T03:42:37;14.65;;;6.55;;
41719;SDS011;27405;53.316;-6.294;2023-04-25T03:45:03;12.25;;;6.05;;
41719;SDS011;27405;53.316;-6.294;2023-04-25T03:47:29;15.50;;;6.70;;
41719;SDS011;27405;53.316;-6.294;2023-04-25T03:49:54;14.25;;;6.95;;
41719;SDS011;27405;53.316;-6.294;2023-04-25T03:52:20;12.25;;;5.90;;
41719;SDS011;27405;53.316;-6.294;2023-04-25T03:54:46;12.90;;;6.10;;
41719;SDS011;27405;53.316;-6.294;2023-04-25T03:57:11;14.23;;;6.22;;
41719;SDS011;27405;53.316;-6.294;2023-04-25T03:59:37;13.82;;;6.55;;
41719;SDS011;27405;53.316;-6.294;2023-04-25T04:02:03;16.75;;;6.68;;
41719;SDS011;27405;53.316;-6.294;2023-04-25T04:04:28;13.80;;;6.13;;
41719;SDS011;27405;53.316;-6.294;2023-04-25T04:06:55;15.77;;;6.38;;
41719;SDS011;27405;53.316;-6.294;2023-04-25T04:09:20;14.80;;;6.10;;
41719;SDS011;27405;53.316;-6.294;2023-04-25T04:11:47;12.85;;;6.10;;
41719;SDS011;27405;53.316;-6.294;2023-04-25T04:14:12;17.33;;;6.82;;
41719;SDS011;27405;53.316;-6.294;2023-04-25T04:16:38;13.68;;;5.88;;
41719;SDS011;27405;53.316;-6.294;2023-04-25T04:19:04;12.88;;;5.85;;
41719;SDS011;27405;53.316;-6.294;2023-04-25T04:21:30;12.93;;;6.25;;
41719;SDS011;27405;53.316;-6.294;2023-04-25T04:23:56;14.15;;;6.15;;
41719;SDS011;27405;53.316;-6.294;2023-04-25T04:26:22;12.00;;;5.32;;
41719;SDS011;27405;53.316;-6.294;2023-04-25T04:28:49;14.00;;;6.15;;
41719;SDS011;27405;53.316;-6.294;2023-04-25T04:31:22;14.35;;;6.15;;
41719;SDS011;27405;53.316;-6.294;2023-04-25T04:33:48;14.02;;;6.18;;
41719;SDS011;27405;53.316;-6.294;2023-04-25T04:36:14;12.80;;;5.63;;
41719;SDS011;27405;53.316;-6.294;2023-04-25T04:38:41;9.73;;;4.47;;
41719;SDS011;27405;53.316;-6.294;2023-04-25T04:41:07;11.27;;;5.10;;
41719;SDS011;27405;53.316;-6.294;2023-04-25T04:43:33;14.25;;;5.35;;
41719;SDS011;27405;53.316;-6.294;2023-04-25T04:46:02;12.45;;;5.45;;
41719;SDS011;27405;53.316;-6.294;2023-04-25T04:48:29;13.15;;;5.95;;
41719;SDS011;27405;53.316;-6.294;2023-04-25T04:50:57;16.23;;;6.68;;
41719;SDS011;27405;53.316;-6.294;2023-04-25T04:53:23;12.65;;;5.70;;
41719;SDS011;27405;53.316;-6.294;2023-04-25T04:55:49;14.32;;;5.30;;
41719;SDS011;27405;53.316;-6.294;2023-04-25T04:58:15;13.13;;;5.07;;
41719;SDS011;27405;53.316;-6.294;2023-04-25T05:00:40;12.52;;;5.05;;
41719;SDS011;27405;53.316;-6.294;2023-04-25T05:03:06;13.82;;;4.85;;
41719;SDS011;27405;53.316;-6.294;2023-04-25T05:05:32;10.27;;;5.00;;
41719;SDS011;27405;53.316;-6.294;2023-04-25T05:07:58;10.45;;;5.30;;
41719;SDS011;27405;53.316;-6.294;2023-04-25T05:10:23;9.55;;;4.10;;
41719;SDS011;27405;53.316;-6.294;2023-04-25T05:12:49;12.10;;;4.60;;
41719;SDS011;27405;53.316;-6.294;2023-04-25T05:15:15;12.50;;;4.85;;
41719;SDS011;27405;53.316;-6.294;2023-04-25T05:17:41;10.52;;;4.88;;
41719;SDS011;27405;53.316;-6.294;2023-04-25T05:20:07;12.18;;;5.55;;
41719;SDS011;27405;53.316;-6.294;2023-04-25T05:22:34;10.15;;;4.78;;
41719;SDS011;27405;53.316;-6.294;2023-04-25T05:25:00;8.57;;;4.47;;
41719;SDS011;27405;53.316;-6.294;2023-04-25T05:27:26;11.35;;;4.93;;
41719;SDS011;27405;53.316;-6.294;2023-04-25T05:29:52;11.70;;;4.90;;
41719;SDS011;27405;53.316;-6.294;2023-04-25T05:32:17;12.60;;;4.78;;
41719;SDS011;27405;53.316;-6.294;2023-04-25T05:34:43;10.35;;;4.50;;
41719;SDS011;27405;53.316;-6.294;2023-04-25T05:37:09;11.02;;;4.45;;
41719;SDS011;27405;53.316;-6.294;2023-04-25T05:39:35;8.77;;;4.90;;
41719;SDS011;27405;53.316;-6.294;2023-04-25T05:42:01;18.33;;;5.18;;
41719;SDS011;27405;53.316;-6.294;2023-04-25T05:44:27;7.82;;;3.50;;
41719;SDS011;27405;53.316;-6.294;2023-04-25T05:46:53;6.70;;;3.58;;
41719;SDS011;27405;53.316;-6.294;2023-04-25T05:49:18;10.27;;;3.90;;
41719;SDS011;27405;53.316;-6.294;2023-04-25T05:51:44;11.93;;;4.60;;
41719;SDS011;27405;53.316;-6.294;2023-04-25T05:54:10;10.60;;;4.75;;
41719;SDS011;27405;53.316;-6.294;2023-04-25T05:56:36;12.93;;;5.30;;
41719;SDS011;27405;53.316;-6.294;2023-04-25T05:59:01;16.05;;;5.68;;
41719;SDS011;27405;53.316;-6.294;2023-04-25T06:01:28;11.07;;;5.10;;
41719;SDS011;27405;53.316;-6.294;2023-04-25T06:03:53;14.98;;;6.40;;
41719;SDS011;27405;53.316;-6.294;2023-04-25T06:06:19;15.30;;;5.95;;
41719;SDS011;27405;53.316;-6.294;2023-04-25T06:08:45;15.70;;;6.38;;
41719;SDS011;27405;53.316;-6.294;2023-04-25T06:11:11;17.85;;;6.35;;
41719;SDS011;27405;53.316;-6.294;2023-04-25T06:13:36;16.98;;;6.22;;
41719;SDS011;27405;53.316;-6.294;2023-04-25T06:16:02;11.80;;;5.28;;
41719;SDS011;27405;53.316;-6.294;2023-04-25T06:18:28;10.23;;;4.15;;
41719;SDS011;27405;53.316;-6.294;2023-04-25T06:20:53;9.15;;;4.20;;
41719;SDS011;27405;53.316;-6.294;2023-04-25T06:23:19;12.90;;;4.80;;
41719;SDS011;27405;53.316;-6.294;2023-04-25T06:25:45;14.55;;;4.65;;
41719;SDS011;27405;53.316;-6.294;2023-04-25T06:28:11;17.08;;;5.10;;
41719;SDS011;27405;53.316;-6.294;2023-04-25T06:30:36;17.10;;;5.60;;
41719;SDS011;27405;53.316;-6.294;2023-04-25T06:33:02;13.38;;;5.00;;
41719;SDS011;27405;53.316;-6.294;2023-04-25T06:35:28;15.77;;;5.32;;
41719;SDS011;27405;53.316;-6.294;2023-04-25T06:37:54;12.80;;;5.32;;
41719;SDS011;27405;53.316;-6.294;2023-04-25T06:40:19;11.00;;;5.15;;
41719;SDS011;27405;53.316;-6.294;2023-04-25T06:42:45;23.30;;;6.35;;
41719;SDS011;27405;53.316;-6.294;2023-04-25T06:45:11;16.25;;;6.10;;
41719;SDS011;27405;53.316;-6.294;2023-04-25T06:47:36;20.67;;;6.72;;
41719;SDS011;27405;53.316;-6.294;2023-04-25T06:50:02;16.52;;;7.25;;
41719;SDS011;27405;53.316;-6.294;2023-04-25T06:52:28;22.52;;;8.13;;
41719;SDS011;27405;53.316;-6.294;2023-04-25T06:54:54;19.23;;;9.43;;
41719;SDS011;27405;53.316;-6.294;2023-04-25T06:57:19;22.58;;;9.27;;
41719;SDS011;27405;53.316;-6.294;2023-04-25T06:59:45;23.00;;;10.77;;
41719;SDS011;27405;53.316;-6.294;2023-04-25T07:02:11;22.08;;;10.95;;
41719;SDS011;27405;53.316;-6.294;2023-04-25T07:04:36;23.58;;;11.13;;
41719;SDS011;27405;53.316;-6.294;2023-04-25T07:07:02;21.77;;;10.32;;
41719;SDS011;27405;53.316;-6.294;2023-04-25T07:09:28;22.30;;;11.43;;
41719;SDS011;27405;53.316;-6.294;2023-04-25T07:11:55;25.02;;;10.32;;
41719;SDS011;27405;53.316;-6.294;2023-04-25T07:14:21;25.42;;;10.38;;
41719;SDS011;27405;53.316;-6.294;2023-04-25T07:16:47;22.10;;;9.80;;
41719;SDS011;27405;53.316;-6.294;2023-04-25T07:19:13;24.67;;;10.13;;
41719;SDS011;27405;53.316;-6.294;2023-04-25T07:21:39;22.25;;;10.30;;
41719;SDS011;27405;53.316;-6.294;2023-04-25T07:24:04;22.30;;;11.85;;
41719;SDS011;27405;53.316;-6.294;2023-04-25T07:26:30;26.17;;;12.13;;
41719;SDS011;27405;53.316;-6.294;2023-04-25T07:28:56;42.60;;;19.23;;
41719;SDS011;27405;53.316;-6.294;2023-04-25T07:31:22;26.17;;;11.32;;
41719;SDS011;27405;53.316;-6.294;2023-04-25T07:33:48;25.05;;;11.32;;
41719;SDS011;27405;53.316;-6.294;2023-04-25T07:36:13;25.00;;;12.02;;
41719;SDS011;27405;53.316;-6.294;2023-04-25T07:38:40;22.17;;;11.57;;
41719;SDS011;27405;53.316;-6.294;2023-04-25T07:41:06;24.80;;;11.05;;
41719;SDS011;27405;53.316;-6.294;2023-04-25T07:43:32;23.60;;;11.15;;
41719;SDS011;27405;53.316;-6.294;2023-04-25T07:45:57;24.63;;;11.38;;
41719;SDS011;27405;53.316;-6.294;2023-04-25T07:48:23;23.33;;;10.73;;
41719;SDS011;27405;53.316;-6.294;2023-04-25T07:50:49;25.75;;;10.60;;
41719;SDS011;27405;53.316;-6.294;2023-04-25T07:53:15;22.35;;;10.30;;
41719;SDS011;27405;53.316;-6.294;2023-04-25T07:55:41;28.35;;;11.40;;
41719;SDS011;27405;53.316;-6.294;2023-04-25T07:58:07;23.83;;;11.10;;
41719;SDS011;27405;53.316;-6.294;2023-04-25T08:00:33;29.92;;;11.20;;
41719;SDS011;27405;53.316;-6.294;2023-04-25T08:02:58;23.58;;;11.02;;
41719;SDS011;27405;53.316;-6.294;2023-04-25T08:05:24;24.48;;;11.77;;
41719;SDS011;27405;53.316;-6.294;2023-04-25T08:07:50;26.50;;;11.93;;
41719;SDS011;27405;53.316;-6.294;2023-04-25T08:10:15;25.55;;;12.40;;
41719;SDS011;27405;53.316;-6.294;2023-04-25T08:12:41;25.55;;;12.38;;
41719;SDS011;27405;53.316;-6.294;2023-04-25T08:15:07;26.05;;;11.95;;
41719;SDS011;27405;53.316;-6.294;2023-04-25T08:17:33;26.52;;;12.32;;
41719;SDS011;27405;53.316;-6.294;2023-04-25T08:19:59;25.42;;;10.15;;
41719;SDS011;27405;53.316;-6.294;2023-04-25T08:22:25;21.13;;;8.57;;
41719;SDS011;27405;53.316;-6.294;2023-04-25T08:24:50;23.05;;;9.50;;
41719;SDS011;27405;53.316;-6.294;2023-04-25T08:27:17;21.85;;;9.18;;
41719;SDS011;27405;53.316;-6.294;2023-04-25T08:29:43;17.70;;;8.15;;
41719;SDS011;27405;53.316;-6.294;2023-04-25T08:32:09;21.17;;;9.05;;
41719;SDS011;27405;53.316;-6.294;2023-04-25T08:34:35;20.08;;;8.18;;
41719;SDS011;27405;53.316;-6.294;2023-04-25T08:37:01;16.30;;;6.40;;
41719;SDS011;27405;53.316;-6.294;2023-04-25T08:39:29;16.27;;;6.88;;
41719;SDS011;27405;53.316;-6.294;2023-04-25T08:41:54;15.00;;;6.85;;
41719;SDS011;27405;53.316;-6.294;2023-04-25T08:44:21;16.58;;;6.60;;
41719;SDS011;27405;53.316;-6.294;2023-04-25T08:46:48;14.52;;;4.95;;
41719;SDS011;27405;53.316;-6.294;2023-04-25T08:49:14;14.15;;;5.00;;
41719;SDS011;27405;53.316;-6.294;2023-04-25T08:54:12;11.70;;;3.72;;
41719;SDS011;27405;53.316;-6.294;2023-04-25T08:56:39;8.73;;;3.60;;
41719;SDS011;27405;53.316;-6.294;2023-04-25T08:59:08;9.07;;;3.50;;
41719;SDS011;27405;53.316;-6.294;2023-04-25T09:01:35;10.45;;;3.63;;
41719;SDS011;27405;53.316;-6.294;2023-04-25T09:04:01;14.45;;;3.80;;
41719;SDS011;27405;53.316;-6.294;2023-04-25T09:06:28;5.57;;;3.10;;
41719;SDS011;27405;53.316;-6.294;2023-04-25T09:09:00;9.07;;;3.30;;
41719;SDS011;27405;53.316;-6.294;2023-04-25T09:11:29;12.90;;;3.05;;
41719;SDS011;27405;53.316;-6.294;2023-04-25T09:14:10;17.08;;;3.00;;
41719;SDS011;27405;53.316;-6.294;2023-04-25T09:16:47;7.22;;;2.35;;
41719;SDS011;27405;53.316;-6.294;2023-04-25T09:19:23;7.80;;;2.60;;
41719;SDS011;27405;53.316;-6.294;2023-04-25T09:21:50;7.72;;;2.33;;
41719;SDS011;27405;53.316;-6.294;2023-04-25T09:24:39;10.77;;;2.90;;
41719;SDS011;27405;53.316;-6.294;2023-04-25T09:27:06;9.38;;;2.50;;
41719;SDS011;27405;53.316;-6.294;2023-04-25T09:29:34;6.00;;;2.65;;
41719;SDS011;27405;53.316;-6.294;2023-04-25T09:32:11;8.45;;;3.03;;
41719;SDS011;27405;53.316;-6.294;2023-04-25T09:34:41;12.93;;;3.25;;
41719;SDS011;27405;53.316;-6.294;2023-04-25T09:37:09;6.90;;;2.53;;
41719;SDS011;27405;53.316;-6.294;2023-04-25T09:39:36;7.72;;;2.92;;
41719;SDS011;27405;53.316;-6.294;2023-04-25T09:42:03;10.75;;;2.90;;
41719;SDS011;27405;53.316;-6.294;2023-04-25T09:44:30;8.38;;;2.42;;
41719;SDS011;27405;53.316;-6.294;2023-04-25T09:46:56;6.65;;;2.50;;
41719;SDS011;27405;53.316;-6.294;2023-04-25T09:49:22;11.02;;;2.95;;
41719;SDS011;27405;53.316;-6.294;2023-04-25T09:51:54;8.80;;;2.28;;
41719;SDS011;27405;53.316;-6.294;2023-04-25T09:54:21;8.10;;;2.58;;
41719;SDS011;27405;53.316;-6.294;2023-04-25T09:56:48;8.18;;;2.55;;
41719;SDS011;27405;53.316;-6.294;2023-04-25T09:59:19;8.50;;;2.30;;
41719;SDS011;27405;53.316;-6.294;2023-04-25T10:01:46;13.40;;;3.13;;
41719;SDS011;27405;53.316;-6.294;2023-04-25T10:04:15;10.48;;;2.50;;
41719;SDS011;27405;53.316;-6.294;2023-04-25T10:06:51;9.13;;;2.53;;
41719;SDS011;27405;53.316;-6.294;2023-04-25T10:09:21;10.93;;;2.65;;
41719;SDS011;27405;53.316;-6.294;2023-04-25T10:11:50;8.93;;;2.20;;
41719;SDS011;27405;53.316;-6.294;2023-04-25T10:14:17;10.50;;;2.28;;
41719;SDS011;27405;53.316;-6.294;2023-04-25T10:16:43;12.38;;;2.83;;
41719;SDS011;27405;53.316;-6.294;2023-04-25T10:19:10;11.45;;;2.58;;
41719;SDS011;27405;53.316;-6.294;2023-04-25T10:21:40;12.25;;;2.92;;
41719;SDS011;27405;53.316;-6.294;2023-04-25T10:24:16;8.75;;;2.58;;
41719;SDS011;27405;53.316;-6.294;2023-04-25T10:26:42;13.00;;;2.53;;
41719;SDS011;27405;53.316;-6.294;2023-04-25T10:29:08;19.02;;;3.75;;
41719;SDS011;27405;53.316;-6.294;2023-04-25T10:31:37;10.68;;;2.53;;
41719;SDS011;27405;53.316;-6.294;2023-04-25T10:34:11;8.50;;;2.20;;
41719;SDS011;27405;53.316;-6.294;2023-04-25T10:36:37;9.40;;;2.40;;
41719;SDS011;27405;53.316;-6.294;2023-04-25T10:39:04;10.80;;;2.20;;
41719;SDS011;27405;53.316;-6.294;2023-04-25T10:41:47;8.00;;;2.22;;
41719;SDS011;27405;53.316;-6.294;2023-04-25T10:44:17;10.45;;;2.97;;
41719;SDS011;27405;53.316;-6.294;2023-04-25T10:46:44;10.85;;;2.30;;
41719;SDS011;27405;53.316;-6.294;2023-04-25T10:49:10;6.68;;;2.58;;
41719;SDS011;27405;53.316;-6.294;2023-04-25T10:51:58;8.80;;;2.33;;
41719;SDS011;27405;53.316;-6.294;2023-04-25T10:54:39;7.80;;;2.10;;
41719;SDS011;27405;53.316;-6.294;2023-04-25T10:57:39;9.70;;;2.35;;
41719;SDS011;27405;53.316;-6.294;2023-04-25T11:00:17;8.50;;;2.33;;
41719;SDS011;27405;53.316;-6.294;2023-04-25T11:02:48;8.52;;;2.75;;
41719;SDS011;27405;53.316;-6.294;2023-04-25T11:07:59;13.10;;;2.55;;
41719;SDS011;27405;53.316;-6.294;2023-04-25T11:10:30;8.45;;;2.33;;
41719;SDS011;27405;53.316;-6.294;2023-04-25T11:12:57;10.75;;;2.25;;
41719;SDS011;27405;53.316;-6.294;2023-04-25T11:15:23;6.80;;;2.45;;
41719;SDS011;27405;53.316;-6.294;2023-04-25T11:17:52;15.98;;;2.80;;
41719;SDS011;27405;53.316;-6.294;2023-04-25T11:20:19;12.77;;;2.28;;
41719;SDS011;27405;53.316;-6.294;2023-04-25T11:22:45;11.63;;;2.20;;
41719;SDS011;27405;53.316;-6.294;2023-04-25T11:25:12;6.75;;;2.22;;
41719;SDS011;27405;53.316;-6.294;2023-04-25T11:30:18;7.63;;;1.85;;
41719;SDS011;27405;53.316;-6.294;2023-04-25T11:32:45;6.72;;;2.10;;
41719;SDS011;27405;53.316;-6.294;2023-04-25T11:35:11;7.25;;;2.40;;
41719;SDS011;27405;53.316;-6.294;2023-04-25T11:37:40;6.72;;;2.28;;
41719;SDS011;27405;53.316;-6.294;2023-04-25T11:40:06;7.47;;;2.00;;
41719;SDS011;27405;53.316;-6.294;2023-04-25T11:42:36;8.88;;;2.58;;
41719;SDS011;27405;53.316;-6.294;2023-04-25T11:45:03;7.95;;;2.42;;
41719;SDS011;27405;53.316;-6.294;2023-04-25T11:47:30;9.82;;;2.70;;
41719;SDS011;27405;53.316;-6.294;2023-04-25T11:49:58;12.18;;;2.72;;
41719;SDS011;27405;53.316;-6.294;2023-04-25T11:52:37;7.35;;;2.63;;
41719;SDS011;27405;53.316;-6.294;2023-04-25T11:55:05;7.43;;;2.50;;
41719;SDS011;27405;53.316;-6.294;2023-04-25T11:57:32;10.68;;;3.00;;
41719;SDS011;27405;53.316;-6.294;2023-04-25T12:02:41;8.48;;;2.08;;
41719;SDS011;27405;53.316;-6.294;2023-04-25T12:05:08;7.93;;;3.22;;
41719;SDS011;27405;53.316;-6.294;2023-04-25T12:07:35;8.80;;;2.75;;
41719;SDS011;27405;53.316;-6.294;2023-04-25T12:10:08;10.65;;;2.47;;
41719;SDS011;27405;53.316;-6.294;2023-04-25T12:12:36;9.43;;;3.05;;
41719;SDS011;27405;53.316;-6.294;2023-04-25T12:15:09;8.55;;;2.75;;
41719;SDS011;27405;53.316;-6.294;2023-04-25T12:17:36;8.20;;;2.60;;
41719;SDS011;27405;53.316;-6.294;2023-04-25T12:20:10;6.65;;;1.90;;
41719;SDS011;27405;53.316;-6.294;2023-04-25T12:22:41;7.93;;;2.13;;
41719;SDS011;27405;53.316;-6.294;2023-04-25T12:25:11;8.52;;;2.30;;
41719;SDS011;27405;53.316;-6.294;2023-04-25T12:33:34;15.15;;;2.78;;
41719;SDS011;27405;53.316;-6.294;2023-04-25T12:36:02;16.02;;;2.92;;
41719;SDS011;27405;53.316;-6.294;2023-04-25T12:38:35;7.90;;;2.50;;
41719;SDS011;27405;53.316;-6.294;2023-04-25T12:43:27;8.82;;;2.33;;
41719;SDS011;27405;53.316;-6.294;2023-04-25T12:45:54;8.75;;;2.50;;
41719;SDS011;27405;53.316;-6.294;2023-04-25T12:48:20;12.45;;;2.47;;
41719;SDS011;27405;53.316;-6.294;2023-04-25T12:50:47;9.27;;;2.28;;
41719;SDS011;27405;53.316;-6.294;2023-04-25T12:53:23;9.07;;;2.75;;
41719;SDS011;27405;53.316;-6.294;2023-04-25T12:55:49;8.60;;;2.30;;
41719;SDS011;27405;53.316;-6.294;2023-04-25T12:58:16;12.68;;;2.80;;
41719;SDS011;27405;53.316;-6.294;2023-04-25T13:00:43;10.02;;;2.30;;
41719;SDS011;27405;53.316;-6.294;2023-04-25T13:03:09;9.75;;;2.17;;
41719;SDS011;27405;53.316;-6.294;2023-04-25T13:05:38;7.93;;;2.17;;
41719;SDS011;27405;53.316;-6.294;2023-04-25T13:08:04;9.00;;;2.10;;
41719;SDS011;27405;53.316;-6.294;2023-04-25T13:10:30;13.07;;;2.80;;
41719;SDS011;27405;53.316;-6.294;2023-04-25T13:12:58;9.95;;;2.70;;
41719;SDS011;27405;53.316;-6.294;2023-04-25T13:15:24;10.68;;;3.17;;
41719;SDS011;27405;53.316;-6.294;2023-04-25T13:17:50;14.70;;;3.08;;
41719;SDS011;27405;53.316;-6.294;2023-04-25T13:20:15;14.05;;;3.45;;
41719;SDS011;27405;53.316;-6.294;2023-04-25T13:22:42;13.43;;;2.83;;
41719;SDS011;27405;53.316;-6.294;2023-04-25T13:25:08;11.40;;;3.35;;
41719;SDS011;27405;53.316;-6.294;2023-04-25T13:27:34;12.65;;;3.38;;
41719;SDS011;27405;53.316;-6.294;2023-04-25T13:30:03;15.45;;;3.72;;
41719;SDS011;27405;53.316;-6.294;2023-04-25T13:32:35;16.08;;;4.50;;
41719;SDS011;27405;53.316;-6.294;2023-04-25T13:35:02;16.25;;;3.67;;
41719;SDS011;27405;53.316;-6.294;2023-04-25T13:37:30;11.90;;;3.60;;
41719;SDS011;27405;53.316;-6.294;2023-04-25T13:39:58;11.95;;;3.40;;
41719;SDS011;27405;53.316;-6.294;2023-04-25T13:42:29;15.93;;;3.40;;
41719;SDS011;27405;53.316;-6.294;2023-04-25T13:44:56;16.17;;;3.97;;
41719;SDS011;27405;53.316;-6.294;2023-04-25T13:47:21;11.10;;;3.30;;
41719;SDS011;27405;53.316;-6.294;2023-04-25T13:49:48;14.63;;;3.90;;
41719;SDS011;27405;53.316;-6.294;2023-04-25T13:52:16;17.10;;;4.00;;
41719;SDS011;27405;53.316;-6.294;2023-04-25T13:54:42;19.20;;;4.55;;
41719;SDS011;27405;53.316;-6.294;2023-04-25T13:57:08;14.25;;;3.15;;
41719;SDS011;27405;53.316;-6.294;2023-04-25T13:59:36;17.58;;;3.95;;
41719;SDS011;27405;53.316;-6.294;2023-04-25T14:02:02;11.88;;;3.10;;
41719;SDS011;27405;53.316;-6.294;2023-04-25T14:04:28;14.07;;;4.00;;
41719;SDS011;27405;53.316;-6.294;2023-04-25T14:06:53;15.15;;;3.30;;
41719;SDS011;27405;53.316;-6.294;2023-04-25T14:09:20;12.63;;;3.40;;
41719;SDS011;27405;53.316;-6.294;2023-04-25T14:11:50;15.95;;;3.65;;
41719;SDS011;27405;53.316;-6.294;2023-04-25T14:14:17;13.52;;;3.40;;
41719;SDS011;27405;53.316;-6.294;2023-04-25T14:16:43;17.52;;;3.58;;
41719;SDS011;27405;53.316;-6.294;2023-04-25T14:19:09;13.93;;;3.42;;
41719;SDS011;27405;53.316;-6.294;2023-04-25T14:21:35;12.25;;;3.08;;
41719;SDS011;27405;53.316;-6.294;2023-04-25T14:24:01;13.25;;;3.15;;
41719;SDS011;27405;53.316;-6.294;2023-04-25T14:26:26;12.15;;;3.17;;
41719;SDS011;27405;53.316;-6.294;2023-04-25T14:28:52;15.18;;;3.05;;
41719;SDS011;27405;53.316;-6.294;2023-04-25T14:31:18;12.63;;;3.22;;
41719;SDS011;27405;53.316;-6.294;2023-04-25T14:33:43;10.43;;;2.88;;
41719;SDS011;27405;53.316;-6.294;2023-04-25T14:36:10;13.23;;;2.90;;
41719;SDS011;27405;53.316;-6.294;2023-04-25T14:38:36;9.40;;;2.90;;
41719;SDS011;27405;53.316;-6.294;2023-04-25T14:41:02;11.50;;;2.90;;